createdAt,value
2023-01-08T00:01:38.442Z,10.45
2023-01-08T00:04:07.143Z,10.42
2023-01-08T00:06:36.646Z,10.41
2023-01-08T00:09:05.265Z,10.42
2023-01-08T00:11:33.630Z,10.42
2023-01-08T00:14:01.949Z,10.41
2023-01-08T00:16:32.430Z,10.40
2023-01-08T00:19:00.784Z,10.38
2023-01-08T00:21:29.739Z,10.38
2023-01-08T00:23:58.092Z,10.42
2023-01-08T00:26:26.483Z,10.47
2023-01-08T00:28:55.028Z,10.51
2023-01-08T00:31:23.630Z,10.55
2023-01-08T00:33:53.415Z,10.57
2023-01-08T00:36:21.851Z,10.60
2023-01-08T00:38:50.264Z,10.63
2023-01-08T00:41:18.940Z,10.67
2023-01-08T00:43:47.353Z,10.43
2023-01-08T00:46:16.763Z,10.65
2023-01-08T00:48:45.157Z,10.61
2023-01-08T00:51:15.089Z,10.59
2023-01-08T00:53:43.440Z,10.60
2023-01-08T00:56:12.194Z,10.64
2023-01-08T00:58:40.591Z,10.67
2023-01-08T01:01:13.737Z,10.52
2023-01-08T01:03:42.572Z,10.62
2023-01-08T01:06:13.325Z,10.60
2023-01-08T01:08:44.421Z,10.79
2023-01-08T01:11:20.267Z,10.64
2023-01-08T01:13:49.351Z,10.81
2023-01-08T01:16:17.873Z,10.82
2023-01-08T01:18:46.439Z,10.82
2023-01-08T01:21:19.198Z,10.82
2023-01-08T01:23:48.954Z,10.83
2023-01-08T01:26:18.820Z,10.82
2023-01-08T01:28:49.517Z,10.82
2023-01-08T01:31:18.287Z,10.79
2023-01-08T01:33:47.577Z,10.80
2023-01-08T01:36:17.740Z,10.80
2023-01-08T01:38:46.649Z,10.80
2023-01-08T01:41:24.651Z,10.67
2023-01-08T01:43:53.539Z,10.80
2023-01-08T01:46:28.077Z,10.74
2023-01-08T01:48:59.688Z,10.83
2023-01-08T01:51:32.928Z,10.13
2023-01-08T01:54:03.758Z,10.80
2023-01-08T01:56:34.006Z,10.80
2023-01-08T01:59:02.560Z,10.79
2023-01-08T02:01:32.855Z,10.76
2023-01-08T02:04:02.178Z,10.77
2023-01-08T02:06:38.544Z,10.79
2023-01-08T02:09:15.849Z,10.77
2023-01-08T02:12:12.683Z,10.75
2023-01-08T02:14:50.257Z,10.57
2023-01-08T02:17:25.545Z,10.26
2023-01-08T02:19:58.881Z,10.66
2023-01-08T02:22:39.254Z,10.80
2023-01-08T02:25:12.718Z,10.82
2023-01-08T02:27:45.927Z,10.81
2023-01-08T02:30:14.448Z,10.82
2023-01-08T02:32:44.116Z,10.75
2023-01-08T02:35:13.179Z,10.83
2023-01-08T02:37:42.148Z,10.84
2023-01-08T02:40:22.055Z,10.84
2023-01-08T02:42:59.270Z,10.86
2023-01-08T02:45:38.399Z,10.87
2023-01-08T02:48:13.441Z,10.89
2023-01-08T02:50:45.941Z,10.82
2023-01-08T02:53:18.044Z,10.80
2023-01-08T02:55:51.359Z,10.56
2023-01-08T02:58:24.586Z,10.81
2023-01-08T03:00:54.819Z,10.79
2023-01-08T03:03:26.310Z,10.68
2023-01-08T03:05:58.237Z,10.63
2023-01-08T03:08:27.441Z,10.82
2023-01-08T03:11:02.080Z,10.85
2023-01-08T03:13:38.614Z,10.68
2023-01-08T03:16:12.795Z,10.84
2023-01-08T03:18:47.450Z,10.89
2023-01-08T03:21:19.238Z,10.90
2023-01-08T03:23:49.124Z,10.90
2023-01-08T03:26:21.365Z,10.72
2023-01-08T03:28:54.625Z,10.45
2023-01-08T03:31:26.311Z,10.55
2023-01-08T03:33:56.335Z,10.80
2023-01-08T03:36:28.397Z,10.61
2023-01-08T03:39:02.531Z,10.74
2023-01-08T03:41:34.225Z,10.66
2023-01-08T03:44:04.596Z,10.64
2023-01-08T03:46:35.420Z,10.62
2023-01-08T03:49:06.343Z,10.63
2023-01-08T03:51:41.324Z,10.64
2023-01-08T03:54:12.915Z,10.62
2023-01-08T03:56:41.201Z,10.59
2023-01-08T03:59:12.350Z,10.56
2023-01-08T04:01:41.058Z,10.60
2023-01-08T04:04:10.663Z,10.60
2023-01-08T04:06:39.266Z,10.61
2023-01-08T04:09:07.917Z,10.63
2023-01-08T04:11:36.392Z,10.64
2023-01-08T04:14:04.780Z,10.64
2023-01-08T04:16:34.864Z,10.67
2023-01-08T04:19:03.255Z,10.68
2023-01-08T04:21:31.756Z,10.67
2023-01-08T04:24:00.085Z,10.69
2023-01-08T04:26:28.413Z,10.67
2023-01-08T04:28:56.752Z,10.65
2023-01-08T04:31:25.186Z,10.67
2023-01-08T04:33:55.036Z,10.70
2023-01-08T04:36:23.412Z,10.68
2023-01-08T04:38:51.785Z,10.67
2023-01-08T04:41:20.133Z,10.66
2023-01-08T04:43:48.554Z,10.64
2023-01-08T04:46:17.007Z,10.60
2023-01-08T04:48:45.459Z,10.58
2023-01-08T04:51:15.320Z,10.58
2023-01-08T04:53:43.723Z,10.44
2023-01-08T04:56:13.191Z,10.51
2023-01-08T04:58:41.914Z,10.66
2023-01-08T05:01:15.705Z,10.70
2023-01-08T05:03:46.455Z,10.72
2023-01-08T05:06:16.240Z,10.73
2023-01-08T05:08:44.558Z,10.72
2023-01-08T05:11:12.919Z,10.75
2023-01-08T05:13:41.251Z,10.46
2023-01-08T05:16:09.840Z,10.79
2023-01-08T05:18:38.282Z,10.81
2023-01-08T05:21:07.419Z,10.81
2023-01-08T05:23:37.305Z,10.80
2023-01-08T05:26:07.282Z,10.78
2023-01-08T05:28:36.547Z,10.78
2023-01-08T05:31:05.247Z,10.76
2023-01-08T05:33:33.611Z,10.75
2023-01-08T05:36:02.021Z,10.75
2023-01-08T05:38:30.305Z,10.75
2023-01-08T05:41:00.096Z,10.75
2023-01-08T05:43:28.471Z,10.71
2023-01-08T05:45:59.657Z,10.55
2023-01-08T05:48:29.191Z,10.77
2023-01-08T05:50:57.804Z,10.69
2023-01-08T05:53:26.157Z,10.77
2023-01-08T05:56:01.860Z,10.57
2023-01-08T05:58:30.436Z,10.70
2023-01-08T06:01:03.787Z,10.72
2023-01-08T06:03:32.203Z,10.73
2023-01-08T06:06:01.909Z,10.58
2023-01-08T06:08:30.738Z,10.75
2023-01-08T06:11:02.147Z,10.78
2023-01-08T06:13:30.686Z,10.80
2023-01-08T06:16:00.460Z,10.82
2023-01-08T06:18:29.595Z,10.84
2023-01-08T06:20:58.087Z,10.83
2023-01-08T06:23:26.423Z,10.86
2023-01-08T06:25:55.949Z,10.84
2023-01-08T06:28:25.932Z,10.86
2023-01-08T06:30:54.394Z,10.84
2023-01-08T06:33:23.807Z,10.81
2023-01-08T06:35:52.239Z,10.74
2023-01-08T06:38:21.433Z,10.74
2023-01-08T06:40:51.012Z,10.75
2023-01-08T06:43:23.966Z,10.75
2023-01-08T06:45:58.447Z,10.73
2023-01-08T06:48:27.461Z,10.67
2023-01-08T06:50:56.450Z,10.61
2023-01-08T06:53:25.108Z,10.54
2023-01-08T06:55:57.236Z,10.51
2023-01-08T06:58:26.401Z,10.49
2023-01-08T07:00:56.279Z,10.45
2023-01-08T07:03:24.948Z,10.36
2023-01-08T07:05:53.288Z,10.41
2023-01-08T07:08:22.678Z,10.38
2023-01-08T07:10:51.004Z,10.37
2023-01-08T07:13:19.401Z,10.36
2023-01-08T07:15:47.740Z,10.34
2023-01-08T07:18:17.636Z,10.35
2023-01-08T07:20:46.163Z,10.31
2023-01-08T07:23:14.575Z,10.27
2023-01-08T07:25:42.877Z,10.27
2023-01-08T07:28:13.996Z,10.24
2023-01-08T07:30:43.352Z,10.21
2023-01-08T07:33:11.634Z,10.22
2023-01-08T07:35:41.406Z,10.22
2023-01-08T07:38:09.680Z,10.22
2023-01-08T07:40:39.353Z,10.22
2023-01-08T07:43:07.959Z,10.25
2023-01-08T07:45:36.434Z,10.27
2023-01-08T07:48:05.095Z,10.28
2023-01-08T07:50:33.472Z,10.28
2023-01-08T07:53:03.510Z,10.31
2023-01-08T07:55:32.530Z,10.30
2023-01-08T07:58:00.943Z,10.31
2023-01-08T08:00:29.412Z,10.35
2023-01-08T08:03:03.162Z,10.38
2023-01-08T08:05:33.149Z,10.41
2023-01-08T08:08:02.906Z,10.46
2023-01-08T08:10:31.266Z,10.52
2023-01-08T08:12:59.639Z,10.53
2023-01-08T08:15:28.009Z,10.58
2023-01-08T08:17:56.574Z,10.63
2023-01-08T08:20:24.919Z,10.60
2023-01-08T08:22:53.522Z,10.62
2023-01-08T08:25:23.286Z,10.64
2023-01-08T08:27:51.647Z,10.71
2023-01-08T08:30:20.044Z,10.78
2023-01-08T08:32:48.412Z,10.79
2023-01-08T08:35:16.907Z,10.81
2023-01-08T08:37:45.275Z,10.84
2023-01-08T08:40:14.273Z,10.82
2023-01-08T08:42:44.015Z,10.98
2023-01-08T08:45:12.605Z,10.79
2023-01-08T08:47:41.084Z,11.11
2023-01-08T08:50:11.831Z,11.20
2023-01-08T08:52:40.253Z,11.29
2023-01-08T08:55:09.146Z,11.35
2023-01-08T08:57:37.498Z,11.39
2023-01-08T09:00:08.656Z,11.43
2023-01-08T09:02:37.591Z,11.43
2023-01-08T09:05:06.658Z,11.45
2023-01-08T09:07:35.102Z,11.53
2023-01-08T09:10:03.662Z,11.62
2023-01-08T09:12:32.367Z,11.68
2023-01-08T09:15:00.659Z,11.71
2023-01-08T09:17:30.457Z,11.75
2023-01-08T09:19:58.831Z,11.74
2023-01-08T09:22:27.303Z,11.76
2023-01-08T09:24:56.753Z,11.84
2023-01-08T09:27:25.378Z,11.96
2023-01-08T09:29:53.825Z,12.04
2023-01-08T09:32:22.193Z,11.86
2023-01-08T09:34:52.012Z,12.03
2023-01-08T09:37:20.366Z,12.05
2023-01-08T09:39:57.731Z,12.08
2023-01-08T09:42:31.839Z,12.10
2023-01-08T09:45:02.523Z,12.07
2023-01-08T09:47:34.003Z,12.08
2023-01-08T09:50:09.501Z,11.49
2023-01-08T09:52:39.797Z,12.11
2023-01-08T09:55:15.396Z,12.16
2023-01-08T09:57:44.605Z,12.20
2023-01-08T10:00:16.313Z,12.18
2023-01-08T10:02:45.559Z,12.31
2023-01-08T10:05:17.718Z,12.35
2023-01-08T10:07:46.943Z,12.37
2023-01-08T10:10:21.369Z,12.42
2023-01-08T10:12:52.026Z,12.32
2023-01-08T10:15:22.422Z,12.43
2023-01-08T10:17:57.305Z,12.45
2023-01-08T10:20:27.696Z,12.49
2023-01-08T10:22:56.753Z,12.52
2023-01-08T10:25:27.390Z,12.60
2023-01-08T10:28:00.460Z,12.48
2023-01-08T10:30:36.540Z,12.69
2023-01-08T10:33:08.348Z,12.60
2023-01-08T10:35:40.811Z,12.62
2023-01-08T10:38:26.548Z,12.83
2023-01-08T10:40:55.361Z,12.87
2023-01-08T10:43:28.522Z,12.52
2023-01-08T10:46:00.739Z,12.81
2023-01-08T10:48:35.096Z,12.93
2023-01-08T10:51:16.008Z,12.81
2023-01-08T10:53:44.952Z,12.85
2023-01-08T10:56:24.327Z,13.01
2023-01-08T10:58:53.381Z,13.03
2023-01-08T11:01:35.432Z,13.04
2023-01-08T11:04:23.922Z,12.32
2023-01-08T11:06:59.798Z,13.10
2023-01-08T11:09:32.132Z,13.11
2023-01-08T11:12:00.888Z,13.13
2023-01-08T11:14:32.273Z,13.14
2023-01-08T11:17:00.731Z,13.14
2023-01-08T11:19:32.804Z,13.16
2023-01-08T11:22:05.484Z,13.17
2023-01-08T11:24:35.631Z,13.13
2023-01-08T11:27:09.219Z,12.91
2023-01-08T11:29:45.849Z,13.07
2023-01-08T11:32:29.348Z,12.86
2023-01-08T11:35:03.451Z,13.06
2023-01-08T11:37:36.975Z,13.20
2023-01-08T11:40:14.966Z,13.39
2023-01-08T11:43:09.954Z,13.47
2023-01-08T11:45:49.506Z,13.52
2023-01-08T11:48:35.476Z,13.48
2023-01-08T11:51:26.273Z,13.51
2023-01-08T11:54:06.280Z,13.46
2023-01-08T11:56:52.438Z,13.51
2023-01-08T11:59:31.070Z,13.46
2023-01-08T12:02:09.165Z,13.30
2023-01-08T12:05:03.734Z,13.41
2023-01-08T12:07:42.621Z,13.23
2023-01-08T12:10:20.474Z,13.40
2023-01-08T12:13:00.136Z,13.35
2023-01-08T12:15:46.254Z,13.32
2023-01-08T12:18:26.326Z,13.15
2023-01-08T12:21:02.509Z,13.13
2023-01-08T12:23:48.851Z,13.11
2023-01-08T12:26:28.799Z,13.13
2023-01-08T12:29:31.416Z,13.32
2023-01-08T12:32:31.910Z,13.28
2023-01-08T12:35:09.276Z,13.11
2023-01-08T12:37:45.484Z,13.31
2023-01-08T12:40:18.208Z,13.32
2023-01-08T12:43:00.074Z,13.36
2023-01-08T12:45:31.756Z,13.19
2023-01-08T12:48:04.880Z,13.37
2023-01-08T12:50:49.578Z,13.26
2023-01-08T12:53:28.092Z,13.39
2023-01-08T12:56:04.492Z,13.44
2023-01-08T12:58:44.829Z,13.35
2023-01-08T13:01:25.508Z,13.52
2023-01-08T13:03:56.325Z,13.50
2023-01-08T13:06:24.772Z,13.54
2023-01-08T13:08:55.184Z,13.57
2023-01-08T13:11:30.453Z,13.47
2023-01-08T13:14:09.324Z,13.61
2023-01-08T13:16:40.527Z,13.62
2023-01-08T13:19:23.441Z,13.63
2023-01-08T13:21:54.062Z,13.67
2023-01-08T13:24:30.956Z,13.70
2023-01-08T13:27:12.119Z,13.44
2023-01-08T13:29:43.288Z,13.64
2023-01-08T13:32:27.291Z,13.69
2023-01-08T13:35:04.599Z,13.57
2023-01-08T13:37:32.908Z,13.75
2023-01-08T13:40:01.264Z,13.82
2023-01-08T13:42:31.546Z,13.79
2023-01-08T13:45:03.203Z,13.79
2023-01-08T13:47:35.274Z,13.81
2023-01-08T13:50:08.331Z,13.05
2023-01-08T13:52:44.193Z,13.69
2023-01-08T13:55:18.066Z,13.84
2023-01-08T13:57:50.795Z,13.73
2023-01-08T14:00:25.548Z,13.87
2023-01-08T14:02:55.356Z,13.84
2023-01-08T14:05:27.141Z,13.87
2023-01-08T14:07:55.941Z,13.82
2023-01-08T14:10:25.029Z,13.90
2023-01-08T14:12:53.896Z,13.89
2023-01-08T14:15:27.055Z,13.93
2023-01-08T14:17:57.096Z,13.94
2023-01-08T14:20:33.056Z,13.96
2023-01-08T14:23:03.091Z,13.95
2023-01-08T14:25:31.861Z,13.95
2023-01-08T14:28:02.789Z,13.84
2023-01-08T14:30:33.078Z,13.95
2023-01-08T14:33:03.059Z,13.93
2023-01-08T14:35:34.852Z,13.90
2023-01-08T14:38:05.865Z,13.86
2023-01-08T14:40:38.374Z,13.35
2023-01-08T14:43:11.229Z,13.83
2023-01-08T14:45:47.911Z,13.70
2023-01-08T14:48:23.294Z,13.85
2023-01-08T14:51:07.610Z,13.81
2023-01-08T14:53:38.895Z,13.39
2023-01-08T14:56:08.644Z,13.82
2023-01-08T14:58:40.251Z,13.83
2023-01-08T15:01:16.674Z,13.84
2023-01-08T15:03:46.962Z,13.82
2023-01-08T15:06:25.724Z,13.80
2023-01-08T15:08:54.289Z,13.69
2023-01-08T15:11:24.368Z,13.04
2023-01-08T15:13:54.313Z,13.61
2023-01-08T15:16:30.083Z,13.55
2023-01-08T15:19:05.536Z,13.42
2023-01-08T15:21:35.993Z,13.57
2023-01-08T15:24:06.296Z,13.57
2023-01-08T15:26:35.080Z,13.59
2023-01-08T15:29:06.724Z,13.47
2023-01-08T15:31:49.549Z,13.61
2023-01-08T15:34:21.411Z,13.59
2023-01-08T15:36:50.795Z,13.61
2023-01-08T15:39:19.215Z,13.63
2023-01-08T15:42:05.087Z,13.66
2023-01-08T15:44:33.551Z,13.65
2023-01-08T15:47:03.376Z,13.64
2023-01-08T15:49:31.752Z,13.62
2023-01-08T15:52:01.146Z,13.61
2023-01-08T15:54:29.471Z,13.58
2023-01-08T15:56:57.810Z,13.56
2023-01-08T15:59:26.170Z,13.47
2023-01-08T16:01:54.544Z,13.38
2023-01-08T16:04:24.539Z,13.36
2023-01-08T16:06:52.863Z,13.33
2023-01-08T16:09:21.279Z,13.35
2023-01-08T16:11:49.796Z,13.34
2023-01-08T16:14:18.127Z,13.34
2023-01-08T16:16:46.504Z,13.34
2023-01-08T16:19:14.983Z,13.33
2023-01-08T16:21:47.785Z,13.32
2023-01-08T16:24:16.163Z,13.28
2023-01-08T16:26:45.468Z,13.26
2023-01-08T16:29:13.870Z,13.23
2023-01-08T16:31:46.639Z,13.23
2023-01-08T16:34:16.357Z,13.21
2023-01-08T16:36:46.105Z,13.22
2023-01-08T16:39:14.434Z,13.23
2023-01-08T16:41:42.799Z,13.23
2023-01-08T16:44:19.564Z,13.19
2023-01-08T16:46:48.297Z,13.11
2023-01-08T16:49:16.799Z,13.05
2023-01-08T16:51:46.634Z,13.00
2023-01-08T16:54:15.321Z,12.97
2023-01-08T16:56:44.383Z,12.84
2023-01-08T16:59:22.873Z,12.90
2023-01-08T17:01:53.468Z,12.84
2023-01-08T17:04:22.008Z,12.83
2023-01-08T17:06:51.771Z,12.83
2023-01-08T17:09:20.191Z,12.79
2023-01-08T17:11:48.987Z,12.75
2023-01-08T17:14:17.443Z,12.72
2023-01-08T17:16:47.723Z,12.67
2023-01-08T17:19:16.686Z,12.64
2023-01-08T17:21:46.106Z,12.62
2023-01-08T17:24:15.860Z,12.61
2023-01-08T17:26:44.244Z,12.58
2023-01-08T17:29:12.574Z,12.57
2023-01-08T17:31:41.156Z,12.52
2023-01-08T17:34:13.043Z,12.50
2023-01-08T17:36:42.537Z,12.44
2023-01-08T17:39:12.301Z,12.39
2023-01-08T17:42:01.857Z,12.35
2023-01-08T17:44:31.248Z,12.30
2023-01-08T17:46:59.544Z,12.29
2023-01-08T17:49:28.053Z,12.27
2023-01-08T17:51:57.187Z,12.27
2023-01-08T17:54:25.563Z,12.25
2023-01-08T17:56:56.429Z,12.24
2023-01-08T17:59:25.101Z,12.20
2023-01-08T18:01:54.315Z,12.17
2023-01-08T18:04:22.860Z,12.14
2023-01-08T18:06:51.151Z,12.08
2023-01-08T18:09:19.572Z,12.04
2023-01-08T18:11:47.827Z,11.95
2023-01-08T18:14:18.058Z,11.95
2023-01-08T18:16:46.576Z,11.91
2023-01-08T18:19:16.852Z,11.62
2023-01-08T18:21:45.748Z,11.81
2023-01-08T18:24:14.503Z,11.84
2023-01-08T18:26:44.089Z,11.64
2023-01-08T18:29:12.635Z,11.66
2023-01-08T18:31:45.714Z,11.60
2023-01-08T18:34:15.394Z,11.55
2023-01-08T18:36:43.813Z,11.46
2023-01-08T18:39:13.351Z,11.42
2023-01-08T18:41:58.992Z,11.38
2023-01-08T18:44:27.543Z,11.29
2023-01-08T18:46:57.306Z,11.09
2023-01-08T18:49:27.630Z,11.22
2023-01-08T18:51:55.951Z,11.15
2023-01-08T18:54:24.281Z,11.10
2023-01-08T18:56:52.694Z,11.07
2023-01-08T18:59:21.141Z,11.04
2023-01-08T19:01:49.667Z,11.04
2023-01-08T19:04:19.510Z,10.98
2023-01-08T19:06:48.299Z,10.70
2023-01-08T19:09:17.475Z,10.76
2023-01-08T19:11:46.175Z,10.71
2023-01-08T19:14:14.915Z,10.65
2023-01-08T19:16:49.538Z,10.58
2023-01-08T19:19:19.445Z,10.51
2023-01-08T19:21:47.848Z,10.43
2023-01-08T19:24:16.230Z,10.43
2023-01-08T19:26:44.627Z,10.39
2023-01-08T19:29:13.055Z,10.31
2023-01-08T19:31:41.484Z,10.05
2023-01-08T19:34:11.724Z,10.25
2023-01-08T19:36:43.728Z,10.16
2023-01-08T19:39:12.411Z,9.50
2023-01-08T19:41:58.458Z,9.98
2023-01-08T19:44:27.357Z,10.00
2023-01-08T19:46:55.769Z,10.01
2023-01-08T19:49:25.738Z,9.98
2023-01-08T19:51:55.553Z,10.01
2023-01-08T19:54:26.002Z,9.99
2023-01-08T19:56:54.620Z,9.94
2023-01-08T19:59:24.829Z,9.87
2023-01-08T20:01:53.438Z,9.83
2023-01-08T20:04:22.196Z,9.78
2023-01-08T20:06:52.427Z,9.81
2023-01-08T20:09:22.260Z,9.79
2023-01-08T20:11:50.700Z,9.69
2023-01-08T20:14:20.972Z,9.70
2023-01-08T20:16:49.650Z,9.65
2023-01-08T20:19:18.049Z,9.62
2023-01-08T20:21:46.422Z,9.51
2023-01-08T20:24:15.374Z,9.37
2023-01-08T20:26:46.862Z,9.30
2023-01-08T20:29:16.730Z,9.23
2023-01-08T20:31:45.276Z,9.21
2023-01-08T20:34:16.392Z,9.10
2023-01-08T20:36:45.675Z,9.19
2023-01-08T20:39:16.526Z,9.05
2023-01-08T20:41:55.464Z,9.21
2023-01-08T20:44:30.476Z,9.13
2023-01-08T20:46:59.061Z,9.10
2023-01-08T20:49:27.763Z,9.05
2023-01-08T20:51:59.478Z,8.99
2023-01-08T20:54:28.854Z,8.92
2023-01-08T20:56:59.859Z,8.92
2023-01-08T20:59:28.828Z,8.85
2023-01-08T21:01:57.429Z,8.74
2023-01-08T21:04:25.975Z,8.68
2023-01-08T21:06:54.521Z,8.64
2023-01-08T21:09:22.956Z,8.60
2023-01-08T21:11:51.524Z,8.62
2023-01-08T21:14:21.318Z,8.60
2023-01-08T21:16:50.763Z,8.65
2023-01-08T21:19:19.258Z,8.66
2023-01-08T21:21:47.659Z,8.68
2023-01-08T21:24:16.711Z,8.69
2023-01-08T21:26:46.208Z,8.68
2023-01-08T21:29:14.878Z,8.64
2023-01-08T21:31:45.082Z,8.65
2023-01-08T21:34:14.091Z,8.65
2023-01-08T21:36:42.452Z,8.61
2023-01-08T21:39:12.146Z,8.41
2023-01-08T21:41:57.763Z,8.53
2023-01-08T21:44:45.222Z,8.52
2023-01-08T21:47:18.099Z,8.54
2023-01-08T21:49:47.152Z,8.56
2023-01-08T21:52:33.746Z,8.56
2023-01-08T21:55:02.585Z,8.54
2023-01-08T21:57:30.933Z,8.61
2023-01-08T21:59:59.256Z,8.64
2023-01-08T22:02:29.168Z,8.61
2023-01-08T22:04:58.540Z,8.57
2023-01-08T22:07:27.314Z,8.61
2023-01-08T22:09:55.921Z,8.58
2023-01-08T22:12:25.678Z,8.49
2023-01-08T22:14:54.528Z,8.40
2023-01-08T22:17:24.110Z,8.20
2023-01-08T22:19:54.777Z,8.07
2023-01-08T22:22:23.205Z,7.99
2023-01-08T22:24:52.337Z,8.00
2023-01-08T22:27:21.223Z,8.01
2023-01-08T22:29:49.882Z,8.04
2023-01-08T22:32:18.247Z,8.11
2023-01-08T22:34:46.640Z,8.15
2023-01-08T22:37:18.501Z,8.20
2023-01-08T22:39:47.107Z,8.30
2023-01-08T22:42:15.483Z,8.45
2023-01-08T22:44:44.140Z,8.57
2023-01-08T22:47:12.493Z,8.66
2023-01-08T22:49:40.961Z,8.75
2023-01-08T22:52:09.961Z,8.77
2023-01-08T22:54:40.185Z,8.75
2023-01-08T22:57:09.688Z,8.73
2023-01-08T22:59:38.377Z,8.77
2023-01-08T23:02:06.738Z,8.82
2023-01-08T23:04:35.065Z,8.84
2023-01-08T23:07:03.435Z,8.81
2023-01-08T23:09:32.064Z,8.81
2023-01-08T23:12:02.016Z,8.84
2023-01-08T23:14:30.446Z,8.88
2023-01-08T23:16:58.866Z,8.94
2023-01-08T23:19:27.555Z,8.99
2023-01-08T23:21:55.882Z,9.00
2023-01-08T23:24:24.293Z,9.01
2023-01-08T23:26:52.648Z,8.99
2023-01-08T23:29:22.435Z,8.97
2023-01-08T23:31:51.445Z,8.94
2023-01-08T23:34:19.786Z,9.01
2023-01-08T23:36:48.132Z,8.96
2023-01-08T23:39:17.841Z,8.91
2023-01-08T23:41:46.242Z,8.88
2023-01-08T23:44:17.018Z,8.45
2023-01-08T23:46:46.853Z,8.91
2023-01-08T23:49:15.234Z,8.87
2023-01-08T23:51:43.638Z,8.92
2023-01-08T23:54:12.991Z,8.89
2023-01-08T23:56:43.873Z,8.81
2023-01-08T23:59:12.944Z,8.72
